Tiempo atmosférico en la estación meteorológica de Cartaya, Huelva (15 m.)



Fecha
DESCASC
Temp. máxima en grados centígrados (hora)
DESCASC
Temp. mínima en grados centígrados (hora)
DESCASC
Temp. media en grados centígrados
DESCASC
Racha de viento máxima en m/sg (hora)
DESCASC
Velocidad máxima media en intervalos de 10 minutos(hora)
DESCASC
Precipitaciones diarias en mm
DESCASC
Precipitaciones de 00:00 a 06:00 en mm
DESCASC
Precipitaciones de 06:00 a 12:00 en mm
DESCASC
Precipitaciones de 12:00 a 18:00 en mm
DESCASC
Precipitaciones de 18:00 a 24:00 en mm
DESCASC
16-01-2020 16.3 (12:50) 10 (05:30) 13.1 5.83 (22:10) 3.33 (22:00) 0 0 0 0 0
15-01-2020 18.3 (16:10) 8.2 (08:30) 13.2 7.22 (11:30) 4.44 (11:40) 0 0 0 0 0
14-01-2020 14.3 (18:00) 2.4 (00:50) 8.4 7.22 (13:50) 3.33 (15:10) 0 0 0 0 0
13-01-2020 14.5 (15:50) 1 (01:10) 7.8 4.17 (13:00) 2.5 (13:00) 0 0 0 0 0
12-01-2020 17 (13:50) 2.5 (00:00) 9.8 4.44 (10:20) 2.5 (09:40) 0 0 0 0 0
11-01-2020 17.3 (15:40) 5.5 (00:00) 11.4 7.22 (11:00) 3.89 (11:10) 0 0 0 0 0
10-01-2020 15.4 (15:30) 6.5 (00:00) 10.9 10.83 (13:00) 5.28 (13:00) 0 0 0 0 0
09-01-2020 16.4 (16:20) 0.4 (00:00) 8.4 6.67 (14:40) 2.5 (00:20) 0 0 0 0 0
08-01-2020 17.1 (15:10) 1.3 (00:00) 9.2 6.11 (22:40) 3.06 (22:20) 0 0 0 0 0
07-01-2020 17.8 (15:00) 4.3 (00:00) 11 5.28 (13:50) 2.78 (13:50) 0 0 0 0 0
06-01-2020 16.8 (14:30) 3.9 (00:00) 10.3 4.72 (12:10) 2.78 (12:00) 0 0 0 0 0
05-01-2020 17.4 (14:50) 5.7 (00:00) 11.5 7.22 (11:10) 3.89 (11:20) 0 0 0 0 0
04-01-2020 16.1 (14:50) 4.6 (00:00) 10.4 5.83 (13:20) 2.78 (12:10) 0 0 0 0 0
03-01-2020 16.3 (15:50) 7.2 (00:00) 11.7 5 (16:10) 2.5 (16:10) 0 0 0 0 0
02-01-2020 15.2 (14:10) 5.7 (00:00) 10.4 5.83 (14:10) 3.61 (14:10) 0 0 0 0 0
01-01-2020 17 (14:20) 5.5 (00:00) 11.3 4.72 (11:20) 2.78 (11:20) 0 0 0 0 0
31-12-2019 -- (--) -- (--) -- -- (--) -- (--) -- -- -- 0 0
30-12-2019 -- (--) -- (--) -- -- (--) -- (--) -- 0 0 0 --
29-12-2019 18.7 (16:50) 5.9 (00:00) 12.3 4.44 (10:50) 2.5 (14:00) 0 0 0 0 0
28-12-2019 17.4 (17:00) 6.3 (00:00) 11.8 3.89 (12:00) 2.5 (12:40) 0 0 0 0 0
27-12-2019 20.9 (13:20) 7.6 (00:00) 14.2 6.11 (11:50) 3.61 (11:40) 0 0 0 0 0
26-12-2019 23.6 (15:40) 6.7 (00:00) 15.2 4.72 (16:40) 2.5 (16:40) 0 0 0 0 0
25-12-2019 21.8 (14:30) 7.7 (00:00) 14.7 5.28 (11:00) 3.06 (11:00) 0 0 0 0 0
24-12-2019 21.9 (16:10) 7.5 (00:00) 14.7 6.67 (03:40) 3.61 (02:40) 0 0 0 0 0
23-12-2019 18.9 (16:20) 6.8 (00:00) 12.8 6.39 (11:40) 3.33 (11:50) 0 0 0 0 0
22-12-2019 16.5 (15:20) 8.6 (00:00) 12.6 5.83 (15:50) 3.33 (01:00) 0.4 0.2 0.2 0 0
21-12-2019 17.3 (11:10) 14.5 (00:00) 15.9 12.78 (04:40) 7.5 (15:50) 0.2 0 0 0.2 0
20-12-2019 17 (00:20) 15.9 (00:00) 16.4 16.67 (03:00) 10.83 (01:10) 7.4 6.2 0.6 0.6 0
19-12-2019 16.9 (23:50) 15.2 (01:20) 16 15.28 (18:50) 9.44 (18:40) 52.6 24 24 1.8 2.8

Gráficas

Temp. máximas Temp. mínimas Temp. medias Precipitaciones Rachas de viento máximas Velocidades máximas media en intervalos de 10 minutos

Datos horarios

Fecha y hora oficial Temperatura (ºC) Velocidad del viento (km/h) Dirección del viento Racha (km/h) Dirección de racha Precipitación (mm) Presión (hPa) Tendencia (hPa) Humedad (%)
2020-01-17 23:00:00 9.2 4 Nordeste 8 Norte 0 -- -- 98
2020-01-17 22:00:00 9 4 Noroeste 6 Norte 0 -- -- 97
2020-01-17 21:00:00 9.8 4 Norte 5 Noroeste 0 -- -- 97
2020-01-17 20:00:00 10.3 3 Noroeste 4 Noroeste 0 -- -- 93
2020-01-17 19:00:00 13.6 0 Calma 4 Sudoeste 0 -- -- 87
2020-01-17 18:00:00 16.5 3 Sudoeste 10 Sudeste 0 -- -- 81
2020-01-17 17:00:00 16.6 6 Sudeste 14 Sudeste 0 -- -- 81
2020-01-17 16:00:00 16.8 10 Sudeste 16 Sudeste 0 -- -- 82
2020-01-17 15:00:00 17.7 6 Nordeste 13 Nordeste 0 -- -- 64
2020-01-17 14:00:00 17.1 7 Nordeste 15 Nordeste 0 -- -- 74
2020-01-17 13:00:00 16.5 7 Nordeste 14 Este 0 -- -- 79
2020-01-17 12:00:00 14.4 6 Nordeste 13 Norte 0 -- -- 90
2020-01-17 11:00:00 13 7 Nordeste 14 Nordeste 0 -- -- 98
2020-01-17 10:00:00 12.5 6 Nordeste 12 Norte 0 -- -- 99
2020-01-17 09:00:00 12.1 6 Norte 12 Norte 0 -- -- 98
2020-01-17 08:00:00 13.1 4 Nordeste 7 Nordeste 0 -- -- 96
2020-01-17 07:00:00 13.5 4 Norte 5 Norte 0 -- -- 97
2020-01-17 06:00:00 13.5 2 Noroeste 5 Sudoeste 0 -- -- 94
2020-01-17 05:00:00 14.7 4 Oeste 8 Sudoeste 0 -- -- 94
2020-01-17 04:00:00 14.7 4 Oeste 12 Sudoeste 0 -- -- 92
2020-01-17 03:00:00 15 5 Sudoeste 12 Sudoeste 0 -- -- 90
2020-01-17 02:00:00 15.1 7 Sur 13 Sudoeste 0 -- -- 89
2020-01-17 01:00:00 15 5 Sur 15 Sudoeste 0 -- -- 89
2020-01-17 00:00:00 15.2 10 Sudoeste 18 Sudoeste 0 -- -- 87
2020-01-16 23:00:00 15.3 10 Sudoeste 21 Sur 0 -- -- 87
2020-01-16 22:00:00 15.3 12 Sudoeste 19 Sur 0 -- -- 86
2020-01-16 21:00:00 14.8 9 Sur 19 Sur 0 -- -- 90
2020-01-16 20:00:00 14.4 7 Sur 16 Sur 0 -- -- 91
2020-01-16 19:00:00 13.8 3 Sudeste 12 Sudeste 0 -- -- 92
2020-01-16 18:00:00 15 6 Sudeste 14 Sudeste 0 -- -- 89
2020-01-16 17:00:00 15.6 8 Sudeste 18 Sudeste 0 -- -- 82
2020-01-16 16:00:00 15.9 10 Sudeste 19 Sudeste 0 -- -- 75
2020-01-16 15:00:00 16 10 Sudeste 16 Sudeste 0 -- -- 69
2020-01-16 14:00:00 15.8 10 Sudeste 17 Sudeste 0 -- -- 62
2020-01-16 13:00:00 16.2 10 Sudeste 19 Sudeste 0 -- -- 57
2020-01-16 12:00:00 15.3 10 Este 19 Este 0 -- -- 63
2020-01-16 11:00:00 13.5 8 Este 18 Este 0 -- -- 71
2020-01-16 10:00:00 10.4 6 Nordeste 14 Nordeste 0 -- -- 89
2020-01-16 09:00:00 10 5 Nordeste 10 Nordeste 0 -- -- 92
2020-01-16 08:00:00 10.2 6 Nordeste 12 Nordeste 0 -- -- 97
2020-01-16 07:00:00 10.1 5 Nordeste 10 Nordeste 0 -- -- 98
2020-01-16 06:00:00 10 6 Nordeste 11 Este 0 -- -- 99
2020-01-16 05:00:00 10.4 7 Nordeste 12 Nordeste 0 -- -- 99
2020-01-16 04:00:00 11.4 6 Nordeste 9 Nordeste 0 -- -- 99
2020-01-16 03:00:00 12 4 Nordeste 8 Nordeste 0 -- -- 99
2020-01-16 02:00:00 12.5 3 Nordeste 11 Este 0 -- -- 99
2020-01-16 01:00:00 13.7 5 Sudeste 12 Sudeste 0 -- -- 99
2020-01-16 00:00:00 13.9 6 Sudeste 14 Sudeste 0 -- -- 99
2020-01-15 23:00:00 13.7 6 Sudeste 13 Sudeste 0 -- -- 99
2020-01-15 22:00:00 13.5 5 Este 12 Este 0 -- -- 97
2020-01-15 21:00:00 13.8 5 Sudeste 14 Sudeste 0 -- -- 96
2020-01-15 20:00:00 14.1 5 Sudeste 10 Sudeste 0 -- -- 93
2020-01-15 19:00:00 15.1 5 Sur 13 Sur 0 -- -- 91
2020-01-15 18:00:00 16.5 8 Sur 18 Sur 0 -- -- 84
2020-01-15 17:00:00 17.9 11 Sur 21 Sur 0 -- -- 79
2020-01-15 16:00:00 18.2 10 Sur 21 Sur 0 -- -- 78
2020-01-15 15:00:00 17.5 9 Sur 19 Sur 0 -- -- 82
2020-01-15 14:00:00 16.3 13 Sudeste 26 Sudeste 0 -- -- 86
2020-01-15 13:00:00 14.6 13 Sudeste 24 Sudeste 0 -- -- 88
2020-01-15 12:00:00 14.5 13 Sudeste 26 Sudeste 0 -- -- 85
2020-01-15 11:00:00 13.4 11 Este 21 Sudeste 0 -- -- 86
2020-01-15 10:00:00 10 5 Nordeste 13 Este 0 -- -- 93
2020-01-15 09:00:00 8.3 3 Nordeste 13 Nordeste 0 -- -- 93
2020-01-15 08:00:00 8.7 7 Este 18 Norte 0 -- -- 92
2020-01-15 07:00:00 8.7 10 Este 20 Nordeste 0 -- -- 91
2020-01-15 06:00:00 8.3 8 Nordeste 15 Nordeste 0 -- -- 91
2020-01-15 05:00:00 8.5 7 Nordeste 15 Este 0 -- -- 91
2020-01-15 04:00:00 9.2 9 Nordeste 18 Nordeste 0 -- -- 92
2020-01-15 03:00:00 8.3 7 Nordeste 13 Nordeste 0 -- -- 95
2020-01-15 02:00:00 9.5 6 Nordeste 10 Nordeste 0 -- -- 92
2020-01-15 01:00:00 12.9 6 Sudeste 15 Sudeste 0 -- -- 87
2020-01-15 00:00:00 13.2 6 Sudeste 13 Sudeste 0 -- -- 86
2020-01-14 23:00:00 13.4 8 Sur 15 Sur 0 -- -- 82
2020-01-14 22:00:00 13.4 6 Sur 13 Sur 0 -- -- 82
2020-01-14 21:00:00 13.6 7 Sur 15 Sur 0 -- -- 82
2020-01-14 20:00:00 13.6 7 Sur 14 Sur 0 -- -- 79
2020-01-14 19:00:00 13.8 6 Sur 14 Sur 0 -- -- 78
2020-01-14 18:00:00 14.3 7 Sur 16 Sudeste 0 -- -- 77
2020-01-14 17:00:00 13.9 10 Sudeste 21 Sudeste 0 -- -- 84
2020-01-14 16:00:00 13.9 11 Sudeste 23 Sudeste 0 -- -- 79
2020-01-14 15:00:00 13.4 10 Sudeste 19 Sudeste 0 -- -- 77
2020-01-14 14:00:00 13.5 10 Sudeste 26 Sudeste 0 -- -- 75
2020-01-14 13:00:00 12.3 5 Este 14 Este 0 -- -- 79
2020-01-14 12:00:00 10.5 6 Este 14 Nordeste 0 -- -- 81
2020-01-14 11:00:00 7.7 8 Nordeste 17 Este 0 -- -- 92
2020-01-14 10:00:00 5.5 6 Nordeste 13 Nordeste 0 -- -- 99
2020-01-14 09:00:00 3.9 6 Nordeste 13 Nordeste 0 -- -- 99
2020-01-14 08:00:00 3.1 6 Norte 12 Nordeste 0 -- -- 99
2020-01-14 07:00:00 3.6 7 Nordeste 11 Nordeste 0 -- -- 99
2020-01-14 06:00:00 3.7 6 Nordeste 13 Nordeste 0 -- -- 100
2020-01-14 05:00:00 3.4 6 Nordeste 9 Nordeste 0 -- -- 99
2020-01-14 04:00:00 3.4 5 Nordeste 10 Norte 0 -- -- 100
2020-01-14 03:00:00 2.8 4 Norte 9 Nordeste 0 -- -- 99
2020-01-14 02:00:00 3.1 5 Norte 7 Norte 0 -- -- 98
2020-01-14 01:00:00 2.5 5 Norte 8 Nordeste 0 -- -- 99
2020-01-14 00:00:00 3.4 4 Nordeste 8 Nordeste 0 -- -- 97
2020-01-13 23:00:00 3.7 5 Norte 7 Norte 0 -- -- 96
2020-01-13 22:00:00 4.2 5 Norte 6 Norte 0 -- -- 95
2020-01-13 21:00:00 4.8 4 Norte 6 Norte 0 -- -- 93
2020-01-13 20:00:00 7.3 2 Sur 8 Sudeste 0 -- -- 88
2020-01-13 19:00:00 11.3 2 Sudoeste 7 Sudoeste 0 -- -- 81
2020-01-13 18:00:00 14 4 Sur 8 Sudoeste 0 -- -- 73
2020-01-13 17:00:00 14.3 4 Sur 12 Sudoeste 0 -- -- 72
2020-01-13 16:00:00 14.4 9 Sur 13 Sur 0 -- -- 71
2020-01-13 15:00:00 14.1 7 Sur 11 Sur 0 -- -- 69
2020-01-13 14:00:00 14.2 6 Sudeste 13 Sudeste 0 -- -- 67
2020-01-13 13:00:00 14.3 9 Sudeste 15 Sudeste 0 -- -- 65
2020-01-13 12:00:00 11.8 5 Nordeste 13 Este 0 -- -- 69
2020-01-13 11:00:00 8.8 6 Nordeste 14 Norte 0 -- -- 75
2020-01-13 10:00:00 6.3 7 Nordeste 13 Nordeste 0 -- -- 85
2020-01-13 09:00:00 3.6 7 Norte 14 Nordeste 0 -- -- 93
2020-01-13 08:00:00 3 6 Norte 12 Nordeste 0 -- -- 94
2020-01-13 07:00:00 2.9 7 Nordeste 13 Nordeste 0 -- -- 94
2020-01-13 06:00:00 1.6 6 Norte 8 Norte 0 -- -- 97
2020-01-13 05:00:00 1.7 6 Norte 8 Norte 0 -- -- 94
2020-01-13 04:00:00 1.7 5 Norte 9 Norte 0 -- -- 94
2020-01-13 03:00:00 2.2 5 Norte 10 Norte 0 -- -- 93
2020-01-13 02:00:00 1.2 5 Norte 9 Norte 0 -- -- 94
2020-01-13 01:00:00 1.2 3 Norte 6 Nordeste 0 -- -- 91
2020-01-13 00:00:00 2.5 4 Norte 5 Norte 0 -- -- 89
2020-01-12 23:00:00 4.8 4 Norte 9 Norte 0 -- -- 84
2020-01-12 22:00:00 4.9 5 Norte 8 Norte 0 -- -- 87
2020-01-12 21:00:00 7.4 4 Noroeste 10 Noroeste 0 -- -- 83
2020-01-12 20:00:00 8.2 4 Noroeste 8 Oeste 0 -- -- 86
2020-01-12 19:00:00 11.1 4 Noroeste 7 Oeste 0 -- -- 74
2020-01-12 18:00:00 15.3 5 Oeste 10 Sudoeste 0 -- -- 62
2020-01-12 17:00:00 16.2 6 Sudoeste 11 Sudoeste 0 -- -- 55
2020-01-12 16:00:00 16.3 7 Sudoeste 12 Sudoeste 0 -- -- 50
2020-01-12 15:00:00 16 8 Sudoeste 13 Sudoeste 0 -- -- 51
2020-01-12 14:00:00 16.9 5 Sudoeste 13 Oeste 0 -- -- 51
2020-01-12 13:00:00 15.5 4 Este 13 Este 0 -- -- 51
2020-01-12 12:00:00 13.2 6 Nordeste 15 Nordeste 0 -- -- 58
2020-01-12 11:00:00 10.4 6 Nordeste 16 Nordeste 0 -- -- 67
2020-01-12 10:00:00 7.2 8 Nordeste 16 Norte 0 -- -- 78
2020-01-12 09:00:00 4.3 8 Nordeste 13 Nordeste 0 -- -- 88
2020-01-12 08:00:00 4.1 8 Norte 13 Norte 0 -- -- 90
2020-01-12 07:00:00 4 6 Nordeste 12 Nordeste 0 -- -- 91
2020-01-12 06:00:00 4.2 6 Nordeste 13 Nordeste 0 -- -- 90
2020-01-12 05:00:00 4.1 7 Nordeste 13 Nordeste 0 -- -- 91
2020-01-12 04:00:00 4 7 Norte 11 Norte 0 -- -- 92
2020-01-12 03:00:00 3.3 6 Norte 9 Norte 0 -- -- 95
2020-01-12 02:00:00 5.1 6 Nordeste 12 Nordeste 0 -- -- 91
2020-01-12 01:00:00 5.3 6 Norte 11 Nordeste 0 -- -- 91
2020-01-12 00:00:00 5.8 6 Nordeste 10 Nordeste 0 -- -- 92
2020-01-11 23:00:00 6.1 6 Norte 10 Norte 0 -- -- 92
2020-01-11 22:00:00 6.6 5 Norte 9 Norte 0 -- -- 89
2020-01-11 21:00:00 7.7 6 Norte 8 Norte 0 -- -- 88
2020-01-11 20:00:00 8.4 4 Norte 7 Norte 0 -- -- 84
2020-01-11 19:00:00 10.3 3 Noroeste 5 Noroeste 0 -- -- 77
2020-01-11 18:00:00 15.9 0 Calma 8 Sur 0 -- -- 58
2020-01-11 17:00:00 16.3 6 Sur 12 Sudeste 0 -- -- 54
2020-01-11 16:00:00 17.2 6 Sudeste 14 Sudeste 0 -- -- 50
2020-01-11 15:00:00 16.8 6 Nordeste 17 Este 0 -- -- 47
2020-01-11 14:00:00 16.1 7 Nordeste 21 Nordeste 0 -- -- 42
2020-01-11 13:00:00 15.1 11 Nordeste 24 Este 0 -- -- 42
2020-01-11 12:00:00 13.3 13 Nordeste 26 Nordeste 0 -- -- 48
2020-01-11 11:00:00 11.6 13 Nordeste 26 Nordeste 0 -- -- 52
2020-01-11 10:00:00 9.3 9 Nordeste 14 Nordeste 0 -- -- 61
2020-01-11 09:00:00 6.4 6 Norte 14 Norte 0 -- -- 70
2020-01-11 08:00:00 6.8 8 Norte 14 Nordeste 0 -- -- 68
2020-01-11 07:00:00 7.3 9 Norte 15 Norte 0 -- -- 66
2020-01-11 06:00:00 8.1 8 Norte 17 Norte 0 -- -- 63
2020-01-11 05:00:00 7.8 8 Norte 15 Nordeste 0 -- -- 66
2020-01-11 04:00:00 7.9 10 Norte 19 Norte 0 -- -- 70
2020-01-11 03:00:00 7.8 7 Norte 14 Norte 0 -- -- 74
2020-01-11 02:00:00 8.9 8 Norte 17 Norte 0 -- -- 72
2020-01-11 01:00:00 9.3 8 Norte 16 Norte 0 -- -- 70
2020-01-11 00:00:00 9.6 8 Norte 18 Norte 0 -- -- 70
2020-01-10 23:00:00 10.3 10 Norte 20 Norte 0 -- -- 69
2020-01-10 22:00:00 10 9 Norte 17 Norte 0 -- -- 71
2020-01-10 21:00:00 10 8 Norte 19 Norte 0 -- -- 72
2020-01-10 20:00:00 10.5 9 Noroeste 17 Noroeste 0 -- -- 70
2020-01-10 19:00:00 11.3 6 Noroeste 15 Noroeste 0 -- -- 66
2020-01-10 18:00:00 13.8 5 Noroeste 22 Norte 0 -- -- 59
2020-01-10 17:00:00 14.7 12 Noroeste 24 Noroeste 0 -- -- 54
2020-01-10 16:00:00 15.2 13 Noroeste 26 Noroeste 0 -- -- 50
2020-01-10 15:00:00 15.2 10 Noroeste 29 Norte 0 -- -- 47
2020-01-10 14:00:00 14.6 13 Norte 35 Noroeste 0 -- -- 51
2020-01-10 13:00:00 13.8 19 Noroeste 39 Noroeste 0 -- -- 52
2020-01-10 12:00:00 12.4 13 Norte 32 Noroeste 0 -- -- 60
2020-01-10 11:00:00 10.5 13 Noroeste 30 Norte 0 -- -- 73
2020-01-10 10:00:00 8.1 11 Noroeste 26 Noroeste 0 -- -- 87
2020-01-10 09:00:00 6.5 11 Noroeste 23 Noroeste 0 -- -- 92
2020-01-10 08:00:00 6.8 12 Noroeste 23 Noroeste 0 -- -- 92
2020-01-10 07:00:00 7.2 6 Noroeste 19 Noroeste 0 -- -- 92
2020-01-10 06:00:00 7.5 2 Norte 17 Norte 0 -- -- 92
2020-01-10 05:00:00 8.4 5 Noroeste 14 Noroeste 0 -- -- 94
2020-01-10 04:00:00 9.2 6 Noroeste 15 Noroeste 0 -- -- 96
2020-01-10 03:00:00 10.3 8 Noroeste 21 Noroeste 0 -- -- 96
2020-01-10 02:00:00 10.9 8 Noroeste 18 Noroeste 0 -- -- 97
2020-01-10 01:00:00 9 5 Noroeste 11 Noroeste 0 -- -- 100
2020-01-10 00:00:00 7.4 3 Nordeste 4 Oeste 0 -- -- 95
2020-01-09 23:00:00 9.5 0 Calma 8 Norte 0 -- -- 95
2020-01-09 22:00:00 10 4 Norte 10 Norte 0 -- -- 96
2020-01-09 21:00:00 8.7 4 Noroeste 9 Noroeste 0 -- -- 96
2020-01-09 20:00:00 8.5 3 Noroeste 4 Noroeste 0 -- -- 86
2020-01-09 19:00:00 11.9 3 Noroeste 11 Oeste 0 -- -- 75
2020-01-09 18:00:00 14.8 6 Noroeste 18 Noroeste 0 -- -- 65
2020-01-09 17:00:00 15.8 6 Noroeste 18 Sudoeste 0 -- -- 64
2020-01-09 16:00:00 16.2 3 Norte 20 Norte 0 -- -- 64
2020-01-09 15:00:00 15.3 7 Norte 24 Norte 0 -- -- 70
2020-01-09 14:00:00 13.9 8 Nordeste 16 Norte 0 -- -- 72
2020-01-09 13:00:00 12.8 3 Sur 13 Norte 0 -- -- 76
2020-01-09 12:00:00 10.8 5 Nordeste 9 Este 0 -- -- 81
2020-01-09 11:00:00 8.7 5 Norte 14 Noroeste 0 -- -- 90
2020-01-09 10:00:00 6.2 4 Noroeste 14 Oeste 0 -- -- 100
2020-01-09 09:00:00 3.3 4 Noroeste 13 Norte 0 -- -- 100
2020-01-09 08:00:00 2 4 Noroeste 8 Noroeste 0 -- -- 99
2020-01-09 07:00:00 1.9 5 Norte 10 Noroeste 0 -- -- 100
2020-01-09 06:00:00 0.4 4 Noroeste 6 Noroeste 0 -- -- 98
2020-01-09 05:00:00 1 3 Noroeste 5 Noroeste 0 -- -- 97
2020-01-09 04:00:00 1.9 3 Nordeste 4 Norte 0 -- -- 95
2020-01-09 03:00:00 4.5 2 Nordeste 9 Norte 0 -- -- 93
2020-01-09 02:00:00 5.9 3 Nordeste 17 Oeste 0 -- -- 90
2020-01-09 01:00:00 7.6 9 Noroeste 18 Noroeste 0 -- -- 87
2020-01-09 00:00:00 8.5 9 Noroeste 20 Noroeste 0 -- -- 83
2020-01-08 23:00:00 9.2 8 Noroeste 22 Noroeste 0 -- -- 80
2020-01-08 22:00:00 8.5 9 Noroeste 18 Noroeste 0 -- -- 86
2020-01-08 21:00:00 8.2 4 Noroeste 9 Oeste 0 -- -- 89
2020-01-08 20:00:00 9.4 4 Noroeste 8 Oeste 0 -- -- 90
2020-01-08 19:00:00 11.7 4 Oeste 9 Oeste 0 -- -- 84
2020-01-08 18:00:00 16.2 3 Sudoeste 6 Oeste 0 -- -- 62
2020-01-08 17:00:00 16.4 3 Sudoeste 9 Sudoeste 0 -- -- 63
2020-01-08 16:00:00 16.5 7 Sudoeste 12 Sur 0 -- -- 60
2020-01-08 15:00:00 16.9 6 Sur 10 Sur 0 -- -- 61
2020-01-08 14:00:00 16.1 8 Sur 11 Sur 0 -- -- 60
2020-01-08 13:00:00 16.3 4 Norte 10 Nordeste 0 -- -- 53
2020-01-08 12:00:00 13.2 5 Norte 14 Nordeste 0 -- -- 66
2020-01-08 11:00:00 10.1 8 Norte 14 Norte 0 -- -- 82
2020-01-08 10:00:00 5.8 4 Norte 10 Norte 0 -- -- 100
2020-01-08 09:00:00 1.3 4 Norte 5 Norte 0 -- -- 99
2020-01-08 08:00:00 2.6 5 Norte 9 Norte 0 -- -- 98
2020-01-08 07:00:00 3.3 5 Norte 9 Norte 0 -- -- 99
2020-01-08 06:00:00 3.6 5 Norte 11 Norte 0 -- -- 99
2020-01-08 05:00:00 2.7 5 Norte 9 Norte 0 -- -- 98
2020-01-08 04:00:00 4.3 5 Norte 8 Norte 0 -- -- 98
2020-01-08 03:00:00 4.6 4 Norte 8 Norte 0 -- -- 97
2020-01-08 02:00:00 4.9 4 Norte 8 Norte 0 -- -- 95
2020-01-08 01:00:00 5.6 5 Norte 8 Norte 0 -- -- 95
2020-01-08 00:00:00 5.9 6 Norte 10 Nordeste 0 -- -- 95
2020-01-07 23:00:00 5.2 5 Norte 8 Norte 0 -- -- 95
2020-01-07 22:00:00 5.7 3 Norte 6 Norte 0 -- -- 93
2020-01-07 21:00:00 6.6 4 Noroeste 6 Noroeste 0 -- -- 93
2020-01-07 20:00:00 7.8 4 Noroeste 6 Noroeste 0 -- -- 90
2020-01-07 19:00:00 10.5 3 Noroeste 5 Noroeste 0 -- -- 84
2020-01-07 18:00:00 15.2 0 Calma 6 Sudoeste 0 -- -- 70
2020-01-07 17:00:00 16.2 4 Sudoeste 9 Sudoeste 0 -- -- 65
2020-01-07 16:00:00 16.3 6 Sudoeste 14 Sur 0 -- -- 65
2020-01-07 15:00:00 17.8 4 Nordeste 14 Noroeste 0 -- -- 48
2020-01-07 14:00:00 16.6 7 Nordeste 19 Este 0 -- -- 53
2020-01-07 13:00:00 15.5 8 Nordeste 14 Nordeste 0 -- -- 59
2020-01-07 12:00:00 13.9 7 Nordeste 16 Este 0 -- -- 66
2020-01-07 11:00:00 11.3 5 Nordeste 12 Nordeste 0 -- -- 80
2020-01-07 10:00:00 6.8 6 Norte 10 Nordeste 0 -- -- 98
2020-01-07 09:00:00 4.9 6 Nordeste 10 Norte 0 -- -- 98
2020-01-07 08:00:00 4.9 6 Norte 11 Norte 0 -- -- 98
2020-01-07 07:00:00 5 6 Norte 10 Nordeste 0 -- -- 99
2020-01-07 06:00:00 4.8 5 Norte 9 Norte 0 -- -- 98
2020-01-07 05:00:00 5.7 6 Norte 11 Noroeste 0 -- -- 99
2020-01-07 04:00:00 5.2 4 Norte 9 Nordeste 0 -- -- 99
2020-01-07 03:00:00 5.7 5 Norte 10 Norte 0 -- -- 98
2020-01-07 02:00:00 5.3 7 Norte 11 Norte 0 -- -- 99
2020-01-07 01:00:00 4.7 2 Norte 8 Norte 0 -- -- 94
2020-01-07 00:00:00 6.3 4 Nordeste 8 Noroeste 0 -- -- 94
2020-01-06 23:00:00 6.7 5 Noroeste 8 Norte 0 -- -- 94
2020-01-06 22:00:00 7.2 5 Noroeste 9 Noroeste 0 -- -- 95
2020-01-06 21:00:00 6.1 5 Noroeste 7 Noroeste 0 -- -- 93
2020-01-06 20:00:00 7.7 4 Norte 6 Noroeste 0 -- -- 89
2020-01-06 19:00:00 10.1 0 Calma 4 Oeste 0 -- -- 83
2020-01-06 18:00:00 14.7 2 Sudoeste 9 Sudeste 0 -- -- 69
2020-01-06 17:00:00 15.5 5 Sur 13 Sudeste 0 -- -- 67
2020-01-06 16:00:00 16.4 8 Sudeste 13 Sudeste 0 -- -- 57
2020-01-06 15:00:00 16.8 8 Sudeste 14 Sudeste 0 -- -- 54
2020-01-06 14:00:00 16 6 Este 14 Este 0 -- -- 59
2020-01-06 13:00:00 14.3 7 Este 17 Nordeste 0 -- -- 67
2020-01-06 12:00:00 12.7 10 Nordeste 17 Norte 0 -- -- 73
2020-01-06 11:00:00 10.2 5 Norte 14 Norte 0 -- -- 84
2020-01-06 10:00:00 6.8 7 Norte 12 Norte 0 -- -- 98